Terminal Aerodrome Forecast
Issued by NWS Dodge City, KS

Home | Current Version | Previous Version | Text Only | Print | Product List | Glossary On
Versions: 1 2 3 4 5 6 7 8 9 10 11 12 13 14 15 16 17 18 19 20
000
FTUS43 KDDC 230500
TAFDDC
TAF
KDDC 230539Z 2306/2406 16018G25KT P6SM SCT250
     FM231500 19027G37KT P6SM SCT250
     FM232200 19028G38KT P6SM VCTS SCT060CB SCT250
      TEMPO 2322/2402 5SM TSRA BKN050CB
     FM240400 34020G30KT P6SM BKN040=

USA.gov is the U.S. government's official web portal to all federal, state and local government web resources and services.